createdAt,value
2019-01-04T00:00:52.806Z,42.08
2019-01-04T00:03:21.755Z,42.23
2019-01-04T00:05:49.133Z,42.35
2019-01-04T00:08:15.356Z,42.30
2019-01-04T00:10:41.259Z,42.08
2019-01-04T00:13:07.209Z,42.35
2019-01-04T00:15:36.179Z,42.34
2019-01-04T00:18:05.110Z,42.37
2019-01-04T00:20:31.006Z,42.09
2019-01-04T00:22:56.901Z,42.21
2019-01-04T00:25:22.833Z,41.88
2019-01-04T00:27:51.787Z,41.94
2019-01-04T00:30:23.774Z,41.91
2019-01-04T00:32:50.307Z,42.16
2019-01-04T00:35:16.247Z,42.01
2019-01-04T00:37:45.201Z,42.15
2019-01-04T00:40:14.247Z,42.03
2019-01-04T00:42:43.560Z,42.22
2019-01-04T00:45:09.621Z,42.24
2019-01-04T00:47:35.562Z,42.47
2019-01-04T00:50:02.077Z,42.47
2019-01-04T00:52:27.990Z,42.08
2019-01-04T00:54:53.888Z,42.01
2019-01-04T00:57:37.004Z,42.51
2019-01-04T01:00:23.023Z,42.31
2019-01-04T01:02:51.216Z,42.25
2019-01-04T01:05:35.986Z,42.42
2019-01-04T01:08:20.356Z,42.28
2019-01-04T01:10:59.726Z,42.35
2019-01-04T01:13:44.308Z,42.25
2019-01-04T01:16:29.183Z,42.10
2019-01-04T01:19:00.259Z,42.13
2019-01-04T01:21:33.822Z,42.30
2019-01-04T01:24:18.540Z,42.16
2019-01-04T01:27:03.162Z,41.85
2019-01-04T01:29:49.056Z,42.94
2019-01-04T01:32:32.209Z,42.39
2019-01-04T01:35:02.770Z,42.10
2019-01-04T01:37:39.441Z,42.13
2019-01-04T01:40:16.074Z,42.40
2019-01-04T01:42:49.793Z,42.93
2019-01-04T01:45:20.369Z,42.97
2019-01-04T01:47:46.481Z,42.81
2019-01-04T01:50:31.491Z,43.10
2019-01-04T01:52:57.410Z,42.82
2019-01-04T01:55:23.352Z,42.77
2019-01-04T01:57:49.240Z,42.42
2019-01-04T02:00:15.163Z,42.54
2019-01-04T02:02:41.097Z,42.76
2019-01-04T02:05:10.049Z,42.37
2019-01-04T02:07:35.991Z,42.31
2019-01-04T02:10:02.439Z,42.36
2019-01-04T02:12:28.349Z,42.16
2019-01-04T02:14:57.208Z,42.10
2019-01-04T02:17:23.135Z,42.51
2019-01-04T02:19:49.034Z,42.34
2019-01-04T02:22:17.936Z,42.20
2019-01-04T02:24:48.123Z,42.31
2019-01-04T02:27:18.708Z,42.65
2019-01-04T02:29:50.600Z,42.75
2019-01-04T02:32:16.505Z,42.49
2019-01-04T02:34:45.645Z,42.38
2019-01-04T02:37:11.969Z,42.42
2019-01-04T02:39:38.439Z,42.66
2019-01-04T02:42:04.346Z,42.78
2019-01-04T02:44:30.649Z,43.16
2019-01-04T02:46:56.937Z,43.00
2019-01-04T02:49:22.837Z,42.53
2019-01-04T02:51:49.134Z,42.84
2019-01-04T02:54:18.212Z,42.38
2019-01-04T02:56:44.157Z,43.06
2019-01-04T02:59:13.228Z,42.61
2019-01-04T03:01:42.220Z,42.59
2019-01-04T03:04:11.503Z,42.49
2019-01-04T03:06:40.418Z,42.43
2019-01-04T03:09:09.422Z,42.64
2019-01-04T03:11:38.382Z,43.01
2019-01-04T03:14:07.225Z,42.31
2019-01-04T03:16:36.276Z,42.59
2019-01-04T03:19:05.321Z,43.00
2019-01-04T03:21:33.969Z,42.53
2019-01-04T03:24:02.948Z,42.78
2019-01-04T03:26:28.858Z,42.74
2019-01-04T03:28:54.802Z,42.92
2019-01-04T03:31:23.709Z,42.57
2019-01-04T03:33:49.645Z,42.57
2019-01-04T03:36:18.686Z,42.80
2019-01-04T03:38:44.627Z,42.94
2019-01-04T03:41:10.570Z,42.69
2019-01-04T03:43:39.498Z,42.95
2019-01-04T03:46:08.434Z,43.06
2019-01-04T03:48:37.334Z,42.96
2019-01-04T03:51:06.029Z,42.64
2019-01-04T03:53:34.931Z,43.31
2019-01-04T03:56:03.657Z,42.99
2019-01-04T03:58:32.574Z,43.16
2019-01-04T04:01:01.568Z,42.86
2019-01-04T04:03:27.464Z,42.91
2019-01-04T04:05:56.458Z,43.23
2019-01-04T04:08:25.764Z,42.83
2019-01-04T04:10:54.475Z,42.91
2019-01-04T04:13:23.394Z,42.78
2019-01-04T04:15:52.281Z,42.84
2019-01-04T04:18:21.356Z,43.69
2019-01-04T04:20:49.196Z,43.42
2019-01-04T04:23:15.098Z,43.28
2019-01-04T04:25:43.812Z,43.09
2019-01-04T04:28:10.148Z,43.39
2019-01-04T04:30:39.159Z,43.11
2019-01-04T04:33:08.163Z,43.19
2019-01-04T04:35:34.077Z,43.31
2019-01-04T04:38:00.018Z,43.23
2019-01-04T04:40:29.888Z,43.66
2019-01-04T04:42:56.726Z,43.40
2019-01-04T04:45:22.624Z,43.18
2019-01-04T04:47:51.650Z,42.96
2019-01-04T04:50:23.731Z,43.37
2019-01-04T04:52:52.700Z,43.57
2019-01-04T04:55:19.062Z,43.51
2019-01-04T04:57:47.807Z,43.03
2019-01-04T05:00:18.136Z,43.26
2019-01-04T05:02:49.294Z,43.31
2019-01-04T05:05:15.206Z,43.42
2019-01-04T05:07:43.890Z,43.76
2019-01-04T05:10:12.840Z,43.72
2019-01-04T05:12:38.746Z,43.34
2019-01-04T05:15:07.803Z,43.32
2019-01-04T05:17:33.761Z,43.20
2019-01-04T05:19:59.699Z,43.26
2019-01-04T05:22:25.602Z,43.75
2019-01-04T05:24:51.561Z,43.43
2019-01-04T05:27:20.238Z,43.46
2019-01-04T05:29:46.176Z,43.31
2019-01-04T05:32:12.082Z,43.38
2019-01-04T05:34:38.035Z,43.75
2019-01-04T05:37:03.974Z,43.89
2019-01-04T05:39:30.039Z,43.75
2019-01-04T05:41:56.296Z,43.64
2019-01-04T05:44:22.206Z,43.67
2019-01-04T05:46:51.168Z,43.18
2019-01-04T05:49:20.089Z,43.37
2019-01-04T05:51:46.029Z,43.17
2019-01-04T05:54:11.934Z,43.75
2019-01-04T05:56:37.977Z,43.72
2019-01-04T05:59:03.903Z,43.81
2019-01-04T06:01:29.801Z,43.35
2019-01-04T06:03:55.758Z,43.81
2019-01-04T06:06:21.718Z,43.83
2019-01-04T06:08:50.674Z,42.92
2019-01-04T06:11:19.614Z,43.87
2019-01-04T06:13:48.718Z,43.73
2019-01-04T06:16:15.039Z,43.91
2019-01-04T06:18:43.729Z,43.72
2019-01-04T06:21:09.638Z,43.81
2019-01-04T06:23:35.540Z,44.15
2019-01-04T06:26:04.470Z,44.10
2019-01-04T06:28:33.506Z,44.89
2019-01-04T06:30:59.800Z,43.67
2019-01-04T06:33:25.710Z,43.91
2019-01-04T06:35:54.484Z,43.84
2019-01-04T06:38:23.408Z,43.60
2019-01-04T06:40:52.334Z,44.07
2019-01-04T06:43:21.292Z,43.19
2019-01-04T06:45:50.233Z,43.46
2019-01-04T06:48:19.207Z,44.23
2019-01-04T06:50:45.530Z,43.83
2019-01-04T06:53:14.230Z,43.67
2019-01-04T06:55:50.083Z,44.11
2019-01-04T06:58:18.791Z,43.86
2019-01-04T07:00:44.792Z,43.86
2019-01-04T07:03:11.136Z,43.36
2019-01-04T07:05:39.790Z,43.07
2019-01-04T07:08:09.149Z,43.89
2019-01-04T07:10:37.821Z,43.63
2019-01-04T07:13:03.759Z,43.04
2019-01-04T07:15:32.680Z,43.45
2019-01-04T07:17:58.604Z,43.52
2019-01-04T07:20:24.519Z,43.50
2019-01-04T07:22:53.211Z,44.93
2019-01-04T07:25:19.148Z,43.50
2019-01-04T07:27:45.047Z,44.14
2019-01-04T07:30:10.942Z,43.68
2019-01-04T07:32:36.978Z,44.06
2019-01-04T07:35:02.987Z,43.21
2019-01-04T07:37:28.895Z,43.28
2019-01-04T07:39:55.161Z,43.32
2019-01-04T07:42:21.066Z,43.34
2019-01-04T07:44:49.226Z,43.43
2019-01-04T07:47:15.186Z,43.24
2019-01-04T07:49:41.071Z,43.26
2019-01-04T07:52:07.145Z,43.60
2019-01-04T07:54:33.071Z,43.12
2019-01-04T07:56:58.980Z,43.46
2019-01-04T07:59:24.869Z,43.29
2019-01-04T08:01:50.754Z,43.08
2019-01-04T08:04:16.637Z,43.24
2019-01-04T08:06:42.629Z,43.62
2019-01-04T08:09:08.537Z,43.40
2019-01-04T08:11:34.428Z,43.46
2019-01-04T08:14:00.374Z,43.27
2019-01-04T08:16:26.272Z,43.96
2019-01-04T08:18:52.457Z,43.57
2019-01-04T08:21:18.386Z,43.94
2019-01-04T08:23:44.276Z,43.84
2019-01-04T08:26:10.187Z,43.53
2019-01-04T08:28:36.076Z,43.33
2019-01-04T08:31:05.155Z,43.08
2019-01-04T08:33:31.035Z,43.83
2019-01-04T08:36:00.331Z,43.30
2019-01-04T08:38:26.549Z,44.01
2019-01-04T08:40:52.850Z,44.01
2019-01-04T08:43:18.807Z,43.96
2019-01-04T08:45:44.838Z,43.67
2019-01-04T08:48:10.727Z,43.60
2019-01-04T08:50:39.401Z,43.48
2019-01-04T08:53:08.439Z,43.52
2019-01-04T08:55:34.342Z,44.67
2019-01-04T08:58:00.242Z,43.67
2019-01-04T09:00:27.287Z,43.71
2019-01-04T09:02:53.187Z,43.85
2019-01-04T09:05:19.128Z,43.80
2019-01-04T09:07:45.037Z,43.99
2019-01-04T09:10:10.942Z,43.85
2019-01-04T09:12:40.364Z,43.75
2019-01-04T09:15:09.046Z,44.26
2019-01-04T09:17:35.275Z,43.89
2019-01-04T09:20:01.181Z,44.52
2019-01-04T09:22:30.150Z,43.78
2019-01-04T09:24:56.052Z,44.67
2019-01-04T09:27:24.783Z,44.47
2019-01-04T09:29:50.667Z,44.93
2019-01-04T09:32:16.571Z,43.88
2019-01-04T09:34:45.425Z,44.12
2019-01-04T09:37:11.667Z,44.74
2019-01-04T09:39:37.576Z,44.36
2019-01-04T09:42:03.764Z,45.01
2019-01-04T09:44:32.657Z,44.33
2019-01-04T09:46:58.946Z,44.31
2019-01-04T09:49:27.619Z,44.75
2019-01-04T09:51:54.792Z,44.74
2019-01-04T09:54:25.838Z,44.38
2019-01-04T09:56:53.430Z,44.25
2019-01-04T09:59:19.331Z,44.59
2019-01-04T10:01:45.348Z,45.04
2019-01-04T10:04:11.250Z,44.85
2019-01-04T10:06:37.131Z,45.15
2019-01-04T10:09:05.021Z,44.34
2019-01-04T10:11:30.943Z,44.49
2019-01-04T10:13:57.044Z,45.01
2019-01-04T10:16:22.963Z,43.56
2019-01-04T10:18:49.050Z,43.87
2019-01-04T10:21:14.932Z,44.07
2019-01-04T10:23:40.854Z,44.19
2019-01-04T10:26:09.893Z,44.35
2019-01-04T10:28:38.895Z,44.08
2019-01-04T10:31:04.832Z,43.57
2019-01-04T10:33:30.744Z,44.34
2019-01-04T10:35:56.626Z,44.68
2019-01-04T10:38:22.549Z,44.49
2019-01-04T10:40:48.433Z,44.62
2019-01-04T10:43:14.320Z,44.45
2019-01-04T10:45:42.981Z,44.22
2019-01-04T10:48:08.914Z,43.96
2019-01-04T10:50:34.814Z,44.50
2019-01-04T10:53:00.753Z,44.55
2019-01-04T10:55:26.669Z,44.95
2019-01-04T10:57:52.625Z,45.06
2019-01-04T11:00:18.520Z,44.73
2019-01-04T11:02:44.460Z,45.21
2019-01-04T11:05:13.749Z,45.14
2019-01-04T11:07:39.707Z,44.39
2019-01-04T11:10:07.542Z,44.63
2019-01-04T11:12:33.479Z,45.23
2019-01-04T11:15:02.316Z,44.81
2019-01-04T11:17:28.217Z,45.27
2019-01-04T11:19:54.483Z,45.16
2019-01-04T11:22:38.952Z,45.26
2019-01-04T11:25:23.339Z,45.93
2019-01-04T11:27:50.237Z,45.47
2019-01-04T11:30:23.896Z,45.21
2019-01-04T11:32:51.728Z,44.97
2019-01-04T11:35:26.250Z,45.39
2019-01-04T11:38:00.387Z,46.15
2019-01-04T11:40:35.087Z,45.53
2019-01-04T11:43:05.679Z,45.18
2019-01-04T11:45:33.583Z,45.19
2019-01-04T11:48:07.298Z,45.08
2019-01-04T11:50:40.913Z,44.88
2019-01-04T11:53:08.753Z,45.61
2019-01-04T11:55:34.702Z,45.12
2019-01-04T11:58:00.604Z,45.54
2019-01-04T12:00:29.276Z,45.58
2019-01-04T12:02:58.309Z,45.01
2019-01-04T12:05:24.214Z,45.65
2019-01-04T12:07:53.363Z,45.40
2019-01-04T12:10:19.258Z,46.00
2019-01-04T12:12:45.221Z,45.44
2019-01-04T12:15:11.127Z,45.47
2019-01-04T12:17:37.078Z,45.14
2019-01-04T12:20:04.276Z,45.34
2019-01-04T12:22:30.156Z,45.34
2019-01-04T12:24:56.648Z,45.99
2019-01-04T12:27:22.536Z,45.01
2019-01-04T12:29:48.977Z,45.68
2019-01-04T12:32:17.912Z,45.96
2019-01-04T12:34:49.155Z,45.81
2019-01-04T12:37:15.109Z,46.06
2019-01-04T12:39:41.007Z,46.48
2019-01-04T12:42:06.922Z,46.94
2019-01-04T12:44:35.798Z,46.56
2019-01-04T12:47:01.701Z,47.06
2019-01-04T12:49:28.016Z,46.44
2019-01-04T12:51:57.088Z,46.57
2019-01-04T12:54:26.020Z,46.68
2019-01-04T12:56:51.922Z,47.13
2019-01-04T12:59:17.817Z,47.06
2019-01-04T13:01:43.721Z,46.65
2019-01-04T13:04:09.638Z,46.47
2019-01-04T13:06:35.629Z,47.14
2019-01-04T13:09:01.706Z,46.83
2019-01-04T13:11:27.590Z,46.68
2019-01-04T13:13:53.536Z,46.48
2019-01-04T13:16:19.604Z,46.22
2019-01-04T13:18:45.496Z,45.93
2019-01-04T13:21:11.391Z,46.90
2019-01-04T13:23:40.564Z,46.19
2019-01-04T13:26:06.466Z,46.65
2019-01-04T13:28:35.568Z,46.51
2019-01-04T13:31:01.514Z,46.21
2019-01-04T13:33:30.419Z,46.16
2019-01-04T13:35:59.383Z,45.60
2019-01-04T13:38:25.382Z,46.39
2019-01-04T13:40:51.259Z,46.21
2019-01-04T13:43:17.558Z,46.52
2019-01-04T13:45:43.779Z,46.15
2019-01-04T13:48:09.684Z,47.10
2019-01-04T13:50:35.591Z,46.34
2019-01-04T13:53:01.524Z,47.08
2019-01-04T13:55:27.585Z,46.34
2019-01-04T13:57:56.735Z,46.68
2019-01-04T14:00:22.623Z,45.90
2019-01-04T14:02:48.570Z,46.31
2019-01-04T14:05:14.885Z,46.34
2019-01-04T14:07:44.218Z,46.25
2019-01-04T14:10:10.103Z,46.91
2019-01-04T14:12:35.980Z,46.66
2019-01-04T14:15:05.702Z,46.19
2019-01-04T14:17:31.580Z,45.86
2019-01-04T14:19:57.518Z,46.31
2019-01-04T14:22:23.435Z,47.17
2019-01-04T14:24:52.616Z,46.80
2019-01-04T14:27:21.590Z,46.71
2019-01-04T14:29:53.617Z,46.23
2019-01-04T14:32:20.509Z,46.99
2019-01-04T14:34:49.450Z,46.71
2019-01-04T14:37:18.607Z,46.59
2019-01-04T14:39:44.515Z,47.35
2019-01-04T14:42:13.229Z,46.34
2019-01-04T14:44:42.166Z,46.42
2019-01-04T14:47:11.225Z,46.97
2019-01-04T14:49:37.113Z,47.03
2019-01-04T14:52:06.065Z,47.17
2019-01-04T14:54:31.961Z,46.86
2019-01-04T14:57:00.907Z,46.96
2019-01-04T14:59:26.983Z,46.73
2019-01-04T15:01:52.874Z,46.50
2019-01-04T15:04:18.799Z,46.40
2019-01-04T15:06:44.727Z,47.17
2019-01-04T15:09:10.613Z,46.29
2019-01-04T15:11:39.324Z,47.26
2019-01-04T15:14:05.630Z,47.14
2019-01-04T15:16:34.302Z,46.73
2019-01-04T15:19:00.205Z,46.64
2019-01-04T15:21:29.539Z,47.29
2019-01-04T15:23:58.468Z,46.73
2019-01-04T15:26:24.417Z,47.06
2019-01-04T15:28:53.415Z,46.65
2019-01-04T15:31:22.321Z,47.55
2019-01-04T15:33:48.313Z,47.67
2019-01-04T15:36:19.460Z,46.99
2019-01-04T15:38:48.588Z,47.45
2019-01-04T15:41:14.483Z,46.78
2019-01-04T15:43:43.401Z,46.81
2019-01-04T15:46:09.335Z,47.04
2019-01-04T15:48:35.292Z,46.54
2019-01-04T15:51:04.805Z,46.99
2019-01-04T15:53:33.617Z,46.57
2019-01-04T15:55:59.560Z,47.06
2019-01-04T15:58:25.463Z,47.12
2019-01-04T16:00:54.781Z,46.98
2019-01-04T16:03:23.470Z,46.57
2019-01-04T16:05:52.565Z,46.75
2019-01-04T16:08:21.548Z,45.96
2019-01-04T16:10:50.682Z,46.55
2019-01-04T16:13:19.692Z,46.75
2019-01-04T16:15:48.763Z,46.68
2019-01-04T16:18:20.756Z,47.32
2019-01-04T16:20:49.674Z,46.56
2019-01-04T16:23:15.587Z,46.65
2019-01-04T16:25:44.888Z,46.44
2019-01-04T16:28:13.558Z,46.76
2019-01-04T16:30:39.463Z,46.76
2019-01-04T16:33:05.342Z,47.46
2019-01-04T16:35:34.443Z,47.29
2019-01-04T16:38:00.356Z,47.06
2019-01-04T16:40:29.279Z,46.53
2019-01-04T16:42:55.176Z,46.75
2019-01-04T16:45:21.082Z,47.56
2019-01-04T16:47:50.206Z,47.01
2019-01-04T16:50:16.089Z,47.04
2019-01-04T16:52:41.998Z,47.47
2019-01-04T16:55:08.311Z,46.90
2019-01-04T16:57:34.256Z,47.63
2019-01-04T17:00:00.163Z,47.09
2019-01-04T17:02:26.065Z,47.06
2019-01-04T17:04:51.951Z,47.41
2019-01-04T17:07:18.228Z,46.81
2019-01-04T17:09:48.229Z,46.88
2019-01-04T17:12:19.204Z,47.65
2019-01-04T17:14:45.096Z,47.06
2019-01-04T17:17:10.994Z,46.89
2019-01-04T17:19:40.927Z,46.80
2019-01-04T17:22:09.718Z,46.80
2019-01-04T17:24:36.024Z,47.22
2019-01-04T17:27:01.934Z,46.80
2019-01-04T17:29:31.328Z,47.53
2019-01-04T17:31:57.217Z,47.57
2019-01-04T17:34:23.550Z,47.86
2019-01-04T17:36:49.489Z,47.92
2019-01-04T17:39:15.543Z,47.94
2019-01-04T17:41:42.420Z,47.47
2019-01-04T17:44:11.162Z,47.81
2019-01-04T17:46:37.130Z,47.45
2019-01-04T17:49:03.035Z,47.50
2019-01-04T17:51:29.298Z,48.04
2019-01-04T17:53:55.251Z,47.58
2019-01-04T17:56:21.153Z,47.66
2019-01-04T17:58:47.411Z,47.70
2019-01-04T18:01:13.437Z,48.06
2019-01-04T18:03:39.493Z,47.81
2019-01-04T18:06:05.731Z,47.40
2019-01-04T18:08:31.666Z,47.53
2019-01-04T18:10:57.975Z,47.14
2019-01-04T18:13:23.941Z,47.66
2019-01-04T18:15:49.965Z,47.55
2019-01-04T18:18:15.925Z,47.63
2019-01-04T18:20:41.840Z,47.53
2019-01-04T18:23:07.758Z,46.96
2019-01-04T18:25:33.716Z,47.66
2019-01-04T18:27:59.683Z,47.20
2019-01-04T18:30:25.587Z,47.17
2019-01-04T18:32:51.536Z,47.24
2019-01-04T18:35:20.546Z,47.04
2019-01-04T18:37:49.481Z,47.50
2019-01-04T18:40:15.370Z,47.88
2019-01-04T18:42:41.282Z,47.71
2019-01-04T18:45:10.228Z,47.66
2019-01-04T18:47:39.387Z,47.83
2019-01-04T18:50:06.120Z,48.00
2019-01-04T18:52:34.914Z,47.14
2019-01-04T18:55:04.255Z,47.14
2019-01-04T18:57:30.150Z,47.61
2019-01-04T18:59:58.886Z,47.34
2019-01-04T19:02:28.009Z,47.09
2019-01-04T19:04:56.943Z,48.21
2019-01-04T19:07:22.836Z,47.32
2019-01-04T19:09:48.725Z,47.42
2019-01-04T19:12:14.607Z,46.58
2019-01-04T19:14:43.600Z,47.25
2019-01-04T19:17:09.512Z,46.91
2019-01-04T19:19:39.091Z,47.56
2019-01-04T19:22:07.821Z,47.01
2019-01-04T19:24:36.994Z,46.96
2019-01-04T19:27:02.932Z,47.14
2019-01-04T19:29:28.839Z,46.71
2019-01-04T19:31:57.745Z,47.25
2019-01-04T19:34:23.648Z,46.93
2019-01-04T19:36:52.647Z,47.63
2019-01-04T19:39:18.556Z,47.04
2019-01-04T19:41:50.754Z,47.59
2019-01-04T19:44:16.647Z,47.60
2019-01-04T19:46:45.812Z,47.68
2019-01-04T19:49:11.863Z,47.25
2019-01-04T19:51:37.773Z,46.95
2019-01-04T19:54:06.485Z,47.60
2019-01-04T19:56:32.382Z,47.26
2019-01-04T19:58:58.713Z,47.72
2019-01-04T20:01:24.612Z,47.01
2019-01-04T20:03:50.517Z,47.55
2019-01-04T20:06:32.590Z,48.08
2019-01-04T20:09:23.849Z,47.28
2019-01-04T20:12:28.293Z,47.09
2019-01-04T20:15:18.708Z,47.44
2019-01-04T20:17:59.984Z,47.50
2019-01-04T20:20:33.434Z,47.51
2019-01-04T20:23:19.242Z,47.87
2019-01-04T20:25:50.072Z,47.55
2019-01-04T20:28:34.273Z,47.78
2019-01-04T20:31:04.696Z,47.14
2019-01-04T20:33:51.408Z,47.50
2019-01-04T20:36:19.263Z,47.39
2019-01-04T20:38:47.533Z,47.46
2019-01-04T20:41:32.343Z,47.83
2019-01-04T20:44:17.913Z,47.29
2019-01-04T20:47:07.307Z,47.86
2019-01-04T20:49:49.873Z,47.61
2019-01-04T20:52:18.761Z,47.01
2019-01-04T20:55:03.276Z,47.36
2019-01-04T20:57:31.556Z,47.88
2019-01-04T21:00:05.298Z,47.22
2019-01-04T21:02:36.066Z,47.14
2019-01-04T21:05:06.985Z,48.11
2019-01-04T21:07:37.650Z,47.29
2019-01-04T21:10:21.243Z,47.33
2019-01-04T21:12:49.151Z,47.77
2019-01-04T21:15:22.961Z,47.55
2019-01-04T21:18:07.935Z,47.96
2019-01-04T21:20:54.473Z,47.78
2019-01-04T21:23:28.479Z,47.22
2019-01-04T21:25:59.265Z,47.29
2019-01-04T21:28:43.498Z,47.66
2019-01-04T21:31:26.476Z,47.45
2019-01-04T21:33:54.898Z,47.34
2019-01-04T21:36:37.942Z,47.28
2019-01-04T21:39:11.912Z,47.06
2019-01-04T21:41:42.603Z,47.41
2019-01-04T21:44:16.356Z,47.53
2019-01-04T21:46:53.090Z,47.41
2019-01-04T21:49:37.896Z,47.45
2019-01-04T21:52:15.013Z,47.51
2019-01-04T21:54:48.475Z,47.59
2019-01-04T21:57:33.926Z,47.37
2019-01-04T22:00:20.503Z,47.45
2019-01-04T22:02:53.815Z,46.83
2019-01-04T22:05:30.414Z,47.14
2019-01-04T22:08:18.059Z,47.84
2019-01-04T22:10:51.855Z,47.14
2019-01-04T22:13:31.519Z,47.41
2019-01-04T22:16:08.378Z,47.59
2019-01-04T22:18:52.615Z,47.71
2019-01-04T22:21:33.604Z,47.32
2019-01-04T22:24:21.251Z,47.71
2019-01-04T22:27:05.628Z,47.41
2019-01-04T22:29:39.120Z,47.47
2019-01-04T22:32:07.258Z,47.42
2019-01-04T22:34:51.699Z,47.27
2019-01-04T22:37:39.051Z,47.32
2019-01-04T22:40:12.914Z,47.45
2019-01-04T22:43:00.375Z,47.51
2019-01-04T22:45:34.285Z,47.94
2019-01-04T22:48:02.092Z,48.16
2019-01-04T22:50:32.772Z,48.27
2019-01-04T22:53:17.655Z,48.07
2019-01-04T22:55:54.715Z,47.97
2019-01-04T22:58:31.423Z,48.14
2019-01-04T23:01:02.105Z,48.09
2019-01-04T23:03:29.927Z,48.81
2019-01-04T23:06:14.406Z,48.74
2019-01-04T23:08:42.325Z,48.49
2019-01-04T23:11:15.769Z,48.93
2019-01-04T23:13:48.067Z,48.53
2019-01-04T23:16:18.575Z,48.58
2019-01-04T23:18:58.732Z,48.20
2019-01-04T23:22:06.146Z,48.06
2019-01-04T23:24:52.104Z,48.40
2019-01-04T23:27:25.569Z,48.89
2019-01-04T23:30:11.814Z,48.18
2019-01-04T23:32:54.592Z,48.19
2019-01-04T23:35:40.336Z,48.43
2019-01-04T23:38:27.960Z,48.63
2019-01-04T23:41:13.738Z,48.53
2019-01-04T23:43:56.811Z,48.04
2019-01-04T23:46:30.557Z,48.71
2019-01-04T23:49:07.040Z,48.12
2019-01-04T23:51:43.545Z,48.33
2019-01-04T23:54:11.357Z,48.80
2019-01-04T23:56:48.299Z,48.96
2019-01-04T23:59:22.791Z,48.55
